Salten — LMFM — position and weather

sailwx.info

Track history (hours):
 
Tides and Currents Weather Stations Pressure Air Temp Water Temp Dewpoint Dewpoint Depression Visibility Wind Speed Wind Dir Waves Ship Positions

Salten

Last reported at 2015-Apr-20 16:33 UTC. Time now 2015-Apr-21 05:01 UTC.
Position N 67°40' E 014°42'.

Length 41 m.

Type: Passenger vessel. MMSI: 259387000.

Date/timePositionNaut miles runAvg speedWind from/ knotsBaromVisibWave heightAir tempDewpointWater temp
2015-Apr-20 16:33N 67°40' E 014°42'1818.6
2015-Apr-20 15:33N 67°22' E 014°27'5 5.3
2015-Apr-20 14:33N 67°17' E 014°22'0 0.0
2015-Apr-20 13:31N 67°17' E 014°22'0 0.0
2015-Apr-20 12:31N 67°17' E 014°22'0 0.0
2015-Apr-20 11:34N 67°17' E 014°22'0 0.0
2015-Apr-20 08:32N 67°17' E 014°22'1211.7
2015-Apr-20 07:33N 67°28' E 014°35'12 1.0
2015-Apr-19 19:23N 67°39' E 014°42'2327.7
2015-Apr-19 18:33N 67°17' E 014°22'1 0.6
2015-Apr-19 17:33N 67°18' E 014°22'21 0.8
2015-Apr-18 16:04N 67°37' E 014°42'1428.0
2015-Apr-18 15:34N 67°23' E 014°29'7 6.8
2015-Apr-18 14:33N 67°17' E 014°22'0 0.0
2015-Apr-18 13:33N 67°17' E 014°22'0 0.0
2015-Apr-18 12:33N 67°17' E 014°22'0 0.0
2015-Apr-18 11:33N 67°17' E 014°22'0 0.4
2015-Apr-18 10:33N 67°17' E 014°23'1312.5
2015-Apr-18 09:32N 67°07' E 014°03'4414.5
2015-Apr-18 06:31N 66°32' E 012°58'11 0.9
2015-Apr-17 18:28N 66°21' E 012°56'1514.6
2015-Apr-17 17:27N 66°36' E 012°59'4313.9
2015-Apr-17 14:24N 67°10' E 014°03'1012.3
2015-Apr-17 13:33N 67°17' E 014°22'0 0.0
2015-Apr-17 12:33N 67°17' E 014°22'0 0.0
2015-Apr-17 11:33N 67°17' E 014°22'0 0.0
2015-Apr-17 10:33N 67°17' E 014°22'6114.3
2015-Apr-17 06:16N 66°27' E 012°51'6 0.5
2015-Apr-16 18:29N 66°21' E 012°53'4312.7
2015-Apr-16 15:05N 67°00' E 013°40'1120.2
2015-Apr-16 14:31N 67°07' E 014°03'1212.9
2015-Apr-16 13:33N 67°17' E 014°23'0 0.2
2015-Apr-16 12:33N 67°17' E 014°22'0 0.0
2015-Apr-16 11:33N 67°17' E 014°22'0 0.0
2015-Apr-16 10:33N 67°17' E 014°22'0 0.0
2015-Apr-16 09:33N 67°17' E 014°22'0 0.0
2015-Apr-16 08:33N 67°17' E 014°22'8 8.3
2015-Apr-16 07:33N 67°25' E 014°31'13 0.8
2015-Apr-15 16:11N 67°37' E 014°42'1524.1
2015-Apr-15 15:33N 67°23' E 014°25'6 6.5
2015-Apr-15 14:33N 67°17' E 014°22'0 0.0
2015-Apr-15 13:33N 67°17' E 014°22'0 0.0
2015-Apr-15 12:33N 67°17' E 014°22'0 0.0
2015-Apr-15 11:33N 67°17' E 014°22'0 0.0
2015-Apr-15 10:33N 67°17' E 014°22'6314.3
2015-Apr-15 06:10N 66°26' E 012°49'6 0.5
2015-Apr-14 18:32N 66°21' E 012°56'5413.4
2015-Apr-14 14:33N 67°07' E 014°02'1212.5
2015-Apr-14 13:33N 67°17' E 014°22'0 0.0
2015-Apr-14 12:33N 67°17' E 014°22'0 0.0
2015-Apr-14 11:33N 67°17' E 014°22'0 0.0
2015-Apr-14 10:33N 67°17' E 014°22'0 0.0
2015-Apr-14 09:33N 67°17' E 014°22'0 0.0
2015-Apr-14 08:33N 67°17' E 014°22'1010.1
2015-Apr-14 07:34N 67°26' E 014°33'24 1.6
2015-Apr-13 16:30N 67°50' E 014°21'2425.9
2015-Apr-13 15:34N 67°26' E 014°26'8 8.1
2015-Apr-13 14:34N 67°17' E 014°24'1 0.7
2015-Apr-13 13:34N 67°17' E 014°22'0 0.0
2015-Apr-13 12:34N 67°17' E 014°22'0 0.0
2015-Apr-13 11:34N 67°17' E 014°22'0 0.0
2015-Apr-13 10:34N 67°17' E 014°22'0 0.0
2015-Apr-13 09:34N 67°17' E 014°22'0 0.4
2015-Apr-13 08:33N 67°17' E 014°23'1010.5
2015-Apr-13 07:34N 67°27' E 014°35'10 0.9
2015-Apr-12 19:14N 67°37' E 014°42'2130.8
2015-Apr-12 18:34N 67°18' E 014°22'0 0.5
2015-Apr-12 17:34N 67°17' E 014°22'24 1.0
2015-Apr-11 16:14N 67°40' E 014°45'1725.2
2015-Apr-11 15:33N 67°24' E 014°31'7 7.3
2015-Apr-11 14:33N 67°17' E 014°22'0 0.0
2015-Apr-11 13:34N 67°17' E 014°22'0 0.0
2015-Apr-11 12:34N 67°17' E 014°22'0 0.0
2015-Apr-11 11:34N 67°17' E 014°22'0 0.0
2015-Apr-11 10:34N 67°17' E 014°22'1212.1
2015-Apr-11 09:33N 67°08' E 014°02'4814.6
2015-Apr-11 06:14N 66°28' E 012°53'7 0.6
2015-Apr-10 18:27N 66°21' E 012°58'  
Track history (hours):
 
Tides and Currents Weather Stations Pressure Air Temp Water Temp Dewpoint Dewpoint Depression Visibility Wind Speed Wind Dir Waves Ship Positions

Salten

Last reported at 2015-Apr-20 16:33 UTC. Time now 2015-Apr-21 05:01 UTC.
Position N 67°40' E 014°42'.

Length 41 m.

Type: Passenger vessel. MMSI: 259387000.

Date/timePositionNaut miles runAvg speedWind from/ knotsBaromVisibWave heightAir tempDewpointWater temp
2015-Apr-20 16:33N 67°40' E 014°42'1818.6
2015-Apr-20 15:33N 67°22' E 014°27'5 5.3
2015-Apr-20 14:33N 67°17' E 014°22'0 0.0
2015-Apr-20 13:31N 67°17' E 014°22'0 0.0
2015-Apr-20 12:31N 67°17' E 014°22'0 0.0
2015-Apr-20 11:34N 67°17' E 014°22'0 0.0
2015-Apr-20 08:32N 67°17' E 014°22'1211.7
2015-Apr-20 07:33N 67°28' E 014°35'12 1.0
2015-Apr-19 19:23N 67°39' E 014°42'2327.7
2015-Apr-19 18:33N 67°17' E 014°22'1 0.6
2015-Apr-19 17:33N 67°18' E 014°22'21 0.8
2015-Apr-18 16:04N 67°37' E 014°42'1428.0
2015-Apr-18 15:34N 67°23' E 014°29'7 6.8
2015-Apr-18 14:33N 67°17' E 014°22'0 0.0
2015-Apr-18 13:33N 67°17' E 014°22'0 0.0
2015-Apr-18 12:33N 67°17' E 014°22'0 0.0
2015-Apr-18 11:33N 67°17' E 014°22'0 0.4
2015-Apr-18 10:33N 67°17' E 014°23'1312.5
2015-Apr-18 09:32N 67°07' E 014°03'4414.5
2015-Apr-18 06:31N 66°32' E 012°58'11 0.9
2015-Apr-17 18:28N 66°21' E 012°56'1514.6
2015-Apr-17 17:27N 66°36' E 012°59'4313.9
2015-Apr-17 14:24N 67°10' E 014°03'1012.3
2015-Apr-17 13:33N 67°17' E 014°22'0 0.0
2015-Apr-17 12:33N 67°17' E 014°22'0 0.0
2015-Apr-17 11:33N 67°17' E 014°22'0 0.0
2015-Apr-17 10:33N 67°17' E 014°22'6114.3
2015-Apr-17 06:16N 66°27' E 012°51'6 0.5
2015-Apr-16 18:29N 66°21' E 012°53'4312.7
2015-Apr-16 15:05N 67°00' E 013°40'1120.2
2015-Apr-16 14:31N 67°07' E 014°03'1212.9
2015-Apr-16 13:33N 67°17' E 014°23'0 0.2
2015-Apr-16 12:33N 67°17' E 014°22'0 0.0
2015-Apr-16 11:33N 67°17' E 014°22'0 0.0
2015-Apr-16 10:33N 67°17' E 014°22'0 0.0
2015-Apr-16 09:33N 67°17' E 014°22'0 0.0
2015-Apr-16 08:33N 67°17' E 014°22'8 8.3
2015-Apr-16 07:33N 67°25' E 014°31'13 0.8
2015-Apr-15 16:11N 67°37' E 014°42'1524.1
2015-Apr-15 15:33N 67°23' E 014°25'6 6.5
2015-Apr-15 14:33N 67°17' E 014°22'0 0.0
2015-Apr-15 13:33N 67°17' E 014°22'0 0.0
2015-Apr-15 12:33N 67°17' E 014°22'0 0.0
2015-Apr-15 11:33N 67°17' E 014°22'0 0.0
2015-Apr-15 10:33N 67°17' E 014°22'6314.3
2015-Apr-15 06:10N 66°26' E 012°49'6 0.5
2015-Apr-14 18:32N 66°21' E 012°56'5413.4
2015-Apr-14 14:33N 67°07' E 014°02'1212.5
2015-Apr-14 13:33N 67°17' E 014°22'0 0.0
2015-Apr-14 12:33N 67°17' E 014°22'0 0.0
2015-Apr-14 11:33N 67°17' E 014°22'0 0.0
2015-Apr-14 10:33N 67°17' E 014°22'0 0.0
2015-Apr-14 09:33N 67°17' E 014°22'0 0.0
2015-Apr-14 08:33N 67°17' E 014°22'1010.1
2015-Apr-14 07:34N 67°26' E 014°33'24 1.6
2015-Apr-13 16:30N 67°50' E 014°21'2425.9
2015-Apr-13 15:34N 67°26' E 014°26'8 8.1
2015-Apr-13 14:34N 67°17' E 014°24'1 0.7
2015-Apr-13 13:34N 67°17' E 014°22'0 0.0
2015-Apr-13 12:34N 67°17' E 014°22'0 0.0
2015-Apr-13 11:34N 67°17' E 014°22'0 0.0
2015-Apr-13 10:34N 67°17' E 014°22'0 0.0
2015-Apr-13 09:34N 67°17' E 014°22'0 0.4
2015-Apr-13 08:33N 67°17' E 014°23'1010.5
2015-Apr-13 07:34N 67°27' E 014°35'10 0.9
2015-Apr-12 19:14N 67°37' E 014°42'2130.8
2015-Apr-12 18:34N 67°18' E 014°22'0 0.5
2015-Apr-12 17:34N 67°17' E 014°22'24 1.0
2015-Apr-11 16:14N 67°40' E 014°45'1725.2
2015-Apr-11 15:33N 67°24' E 014°31'7 7.3
2015-Apr-11 14:33N 67°17' E 014°22'0 0.0
2015-Apr-11 13:34N 67°17' E 014°22'0 0.0
2015-Apr-11 12:34N 67°17' E 014°22'0 0.0
2015-Apr-11 11:34N 67°17' E 014°22'0 0.0
2015-Apr-11 10:34N 67°17' E 014°22'1212.1
2015-Apr-11 09:33N 67°08' E 014°02'4814.6
2015-Apr-11 06:14N 66°28' E 012°53'7 0.6
2015-Apr-10 18:27N 66°21' E 012°58'  

Dump ship's entire track history